createdAt,value
2023-01-28T00:02:05.951Z,92.67
2023-01-28T00:04:33.900Z,92.99
2023-01-28T00:07:01.633Z,91.31
2023-01-28T00:09:29.085Z,91.82
2023-01-28T00:11:56.591Z,92.20
2023-01-28T00:14:24.262Z,91.32
2023-01-28T00:16:51.881Z,93.02
2023-01-28T00:19:19.362Z,93.00
2023-01-28T00:21:46.854Z,93.39
2023-01-28T00:24:14.499Z,96.12
2023-01-28T00:26:43.022Z,95.34
2023-01-28T00:29:10.532Z,94.62
2023-01-28T00:31:38.411Z,93.56
2023-01-28T00:34:05.955Z,93.42
2023-01-28T00:36:34.112Z,92.82
2023-01-28T00:39:02.103Z,91.79
2023-01-28T00:41:31.155Z,91.67
2023-01-28T00:44:00.036Z,90.37
2023-01-28T00:46:28.055Z,90.83
2023-01-28T00:48:55.795Z,91.86
2023-01-28T00:51:23.779Z,90.04
2023-01-28T00:53:51.697Z,90.98
2023-01-28T00:56:20.040Z,91.96
2023-01-28T00:58:48.208Z,90.28
2023-01-28T01:01:19.666Z,92.40
2023-01-28T01:03:47.980Z,91.56
2023-01-28T01:06:17.049Z,91.53
2023-01-28T01:08:50.261Z,92.95
2023-01-28T01:11:18.987Z,90.65
2023-01-28T01:13:52.372Z,90.22
2023-01-28T01:16:20.113Z,90.64
2023-01-28T01:18:50.624Z,90.24
2023-01-28T01:21:21.218Z,90.35
2023-01-28T01:23:49.164Z,89.72
2023-01-28T01:26:16.958Z,90.56
2023-01-28T01:28:44.640Z,91.44
2023-01-28T01:31:17.866Z,93.10
2023-01-28T01:33:47.675Z,91.47
2023-01-28T01:36:18.545Z,92.10
2023-01-28T01:38:46.289Z,92.62
2023-01-28T01:41:30.569Z,93.24
2023-01-28T01:44:04.306Z,93.49
2023-01-28T01:46:52.781Z,93.31
2023-01-28T01:49:25.383Z,93.96
2023-01-28T01:52:01.324Z,92.25
2023-01-28T01:54:32.492Z,93.99
2023-01-28T01:57:01.233Z,93.84
2023-01-28T01:59:32.964Z,93.36
2023-01-28T02:02:06.236Z,93.96
2023-01-28T02:04:41.463Z,94.62
2023-01-28T02:07:15.307Z,93.10
2023-01-28T02:09:44.148Z,94.78
2023-01-28T02:12:36.078Z,93.77
2023-01-28T02:15:07.909Z,93.67
2023-01-28T02:17:37.313Z,94.74
2023-01-28T02:20:14.424Z,94.54
2023-01-28T02:22:56.449Z,94.73
2023-01-28T02:25:48.448Z,95.77
2023-01-28T02:28:45.951Z,94.12
2023-01-28T02:31:39.433Z,94.47
2023-01-28T02:34:15.831Z,94.52
2023-01-28T02:37:04.090Z,94.95
2023-01-28T02:39:39.095Z,96.08
2023-01-28T02:42:20.175Z,95.31
2023-01-28T02:44:48.338Z,96.08
2023-01-28T02:47:35.494Z,94.96
2023-01-28T02:50:11.437Z,95.78
2023-01-28T02:53:38.342Z,96.96
2023-01-28T02:56:16.935Z,96.64
2023-01-28T02:59:21.849Z,97.24
2023-01-28T03:01:58.475Z,96.99
2023-01-28T03:04:47.245Z,98.67
2023-01-28T03:07:17.082Z,97.43
2023-01-28T03:09:48.131Z,96.81
2023-01-28T03:12:41.350Z,96.69
2023-01-28T03:15:41.096Z,95.10
2023-01-28T03:18:37.449Z,95.34
2023-01-28T03:21:29.887Z,95.72
2023-01-28T03:24:28.275Z,94.62
2023-01-28T03:27:44.002Z,94.41
2023-01-28T03:30:46.171Z,95.11
2023-01-28T03:33:42.713Z,94.66
2023-01-28T03:36:29.290Z,94.99
2023-01-28T03:38:58.636Z,94.91
2023-01-28T03:41:27.820Z,95.43
2023-01-28T03:43:58.423Z,93.33
2023-01-28T03:46:26.299Z,92.63
2023-01-28T03:48:54.094Z,91.93
2023-01-28T03:51:21.745Z,91.39
2023-01-28T03:53:49.272Z,90.58
2023-01-28T03:56:18.662Z,90.39
2023-01-28T03:58:52.942Z,91.88
2023-01-28T04:01:21.695Z,91.13
2023-01-28T04:03:49.535Z,90.26
2023-01-28T04:06:23.278Z,91.48
2023-01-28T04:09:01.828Z,89.32
2023-01-28T04:11:32.260Z,89.33
2023-01-28T04:14:03.521Z,90.77
2023-01-28T04:16:52.188Z,89.63
2023-01-28T04:19:19.694Z,89.89
2023-01-28T04:21:49.283Z,90.53
2023-01-28T04:24:17.911Z,90.81
2023-01-28T04:26:45.444Z,91.59
2023-01-28T04:29:15.067Z,91.54
2023-01-28T04:31:42.652Z,92.13
2023-01-28T04:34:34.410Z,92.66
2023-01-28T04:37:20.422Z,93.73
2023-01-28T04:40:08.956Z,92.94
2023-01-28T04:42:59.719Z,90.60
2023-01-28T04:45:59.391Z,90.76
2023-01-28T04:48:26.977Z,88.96
2023-01-28T04:51:13.290Z,90.11
2023-01-28T04:53:48.624Z,91.30
2023-01-28T04:56:27.584Z,92.88
2023-01-28T04:58:55.983Z,93.89
2023-01-28T05:01:25.166Z,91.93
2023-01-28T05:03:53.382Z,93.61
2023-01-28T05:06:28.561Z,93.73
2023-01-28T05:09:00.175Z,94.60
2023-01-28T05:11:28.425Z,91.98
2023-01-28T05:14:00.592Z,90.33
2023-01-28T05:16:35.067Z,89.92
2023-01-28T05:19:03.980Z,89.50
2023-01-28T05:21:37.961Z,90.19
2023-01-28T05:24:10.343Z,91.78
2023-01-28T05:26:37.960Z,92.38
2023-01-28T05:29:06.189Z,95.08
2023-01-28T05:31:34.198Z,96.74
2023-01-28T05:34:01.885Z,96.83
2023-01-28T05:36:30.004Z,97.84
2023-01-28T05:38:58.151Z,97.18
2023-01-28T05:41:25.767Z,99.25
2023-01-28T05:43:58.243Z,98.19
2023-01-28T05:46:32.673Z,98.52
2023-01-28T05:49:13.430Z,99.85
2023-01-28T05:51:56.632Z,100.00
2023-01-28T05:54:25.237Z,100.00
2023-01-28T05:56:53.685Z,100.00
2023-01-28T05:59:21.257Z,98.92
2023-01-28T06:01:51.101Z,98.34
2023-01-28T06:04:20.225Z,97.37
2023-01-28T06:06:47.858Z,98.47
2023-01-28T06:09:16.218Z,98.87
2023-01-28T06:11:45.269Z,98.92
2023-01-28T06:14:14.123Z,97.59
2023-01-28T06:17:00.295Z,99.18
2023-01-28T06:19:37.023Z,98.68
2023-01-28T06:22:04.797Z,98.88
2023-01-28T06:24:33.349Z,99.59
2023-01-28T06:27:00.864Z,100.00
2023-01-28T06:29:28.519Z,99.64
2023-01-28T06:31:55.996Z,99.55
2023-01-28T06:34:23.475Z,100.00
2023-01-28T06:36:53.294Z,100.00
2023-01-28T06:39:22.370Z,100.00
2023-01-28T06:41:50.972Z,98.50
2023-01-28T06:44:18.476Z,98.71
2023-01-28T06:46:46.187Z,97.74
2023-01-28T06:49:13.671Z,95.18
2023-01-28T06:51:41.482Z,95.03
2023-01-28T06:54:09.095Z,90.54
2023-01-28T06:56:36.624Z,92.01
2023-01-28T06:59:04.363Z,91.16
2023-01-28T07:01:33.626Z,91.32
2023-01-28T07:04:02.509Z,93.84
2023-01-28T07:06:30.046Z,94.12
2023-01-28T07:08:57.551Z,93.77
2023-01-28T07:11:25.104Z,93.09
2023-01-28T07:13:52.741Z,94.91
2023-01-28T07:16:20.285Z,95.79
2023-01-28T07:18:47.941Z,96.92
2023-01-28T07:21:15.559Z,95.59
2023-01-28T07:23:43.141Z,93.69
2023-01-28T07:26:21.366Z,93.41
2023-01-28T07:28:48.871Z,93.97
2023-01-28T07:31:16.514Z,94.00
2023-01-28T07:33:44.032Z,94.67
2023-01-28T07:36:11.646Z,92.53
2023-01-28T07:38:39.134Z,88.96
2023-01-28T07:41:07.449Z,88.79
2023-01-28T07:43:35.010Z,88.53
2023-01-28T07:46:02.748Z,88.35
2023-01-28T07:48:30.773Z,90.04
2023-01-28T07:51:02.119Z,90.05
2023-01-28T07:53:30.090Z,90.58
2023-01-28T08:00:05.059Z,90.79
2023-01-28T08:02:39.505Z,91.78
2023-01-28T08:05:08.285Z,92.92
2023-01-28T08:07:37.165Z,93.73
2023-01-28T08:10:05.153Z,92.08
2023-01-28T08:12:34.464Z,93.66
2023-01-28T08:15:02.308Z,94.34
2023-01-28T08:17:30.131Z,94.23
2023-01-28T08:19:57.667Z,93.11
2023-01-28T08:22:28.331Z,91.65
2023-01-28T08:24:55.857Z,90.84
2023-01-28T08:27:24.104Z,91.04
2023-01-28T08:29:51.826Z,92.15
2023-01-28T08:32:19.348Z,89.54
2023-01-28T08:34:46.961Z,89.73
2023-01-28T08:37:14.600Z,89.67
2023-01-28T08:40:04.414Z,89.33
2023-01-28T08:42:32.143Z,87.33
2023-01-28T08:45:01.193Z,87.61
2023-01-28T08:47:31.942Z,90.97
2023-01-28T08:49:59.487Z,91.61
2023-01-28T08:52:27.050Z,92.19
2023-01-28T08:54:54.497Z,90.88
2023-01-28T08:57:23.396Z,91.63
2023-01-28T08:59:52.226Z,90.29
2023-01-28T09:02:31.160Z,93.53
2023-01-28T09:05:00.416Z,95.64
2023-01-28T09:07:28.016Z,94.56
2023-01-28T09:09:55.727Z,91.25
2023-01-28T09:12:25.644Z,91.94
2023-01-28T09:14:53.880Z,92.62
2023-01-28T09:17:22.655Z,90.68
2023-01-28T09:19:50.968Z,92.69
2023-01-28T09:22:20.295Z,91.19
2023-01-28T09:24:47.893Z,91.73
2023-01-28T09:27:17.380Z,89.26
2023-01-28T09:29:48.873Z,86.61
2023-01-28T09:32:19.165Z,87.76
2023-01-28T09:34:46.806Z,86.94
2023-01-28T09:37:14.828Z,83.07
2023-01-28T09:39:43.846Z,82.66
2023-01-28T09:42:25.287Z,85.40
2023-01-28T09:45:26.427Z,83.63
2023-01-28T09:48:00.670Z,79.99
2023-01-28T09:50:42.055Z,79.95
2023-01-28T09:53:32.697Z,78.07
2023-01-28T09:56:10.159Z,80.76
2023-01-28T09:58:38.690Z,77.73
2023-01-28T10:01:44.855Z,76.89
2023-01-28T10:04:57.672Z,77.46
2023-01-28T10:07:53.850Z,79.66
2023-01-28T10:10:42.199Z,78.93
2023-01-28T10:13:39.885Z,79.03
2023-01-28T10:16:40.933Z,78.12
2023-01-28T10:19:23.425Z,76.82
2023-01-28T10:22:08.351Z,76.26
2023-01-28T10:24:41.814Z,78.29
2023-01-28T10:27:31.991Z,75.94
2023-01-28T10:30:25.643Z,76.24
2023-01-28T10:33:16.946Z,77.33
2023-01-28T10:35:44.917Z,76.20
2023-01-28T10:38:20.781Z,74.12
2023-01-28T10:40:48.633Z,76.26
2023-01-28T10:43:24.221Z,75.77
2023-01-28T10:46:05.205Z,74.86
2023-01-28T10:48:49.228Z,73.59
2023-01-28T10:51:18.518Z,71.38
2023-01-28T10:53:47.283Z,72.93
2023-01-28T10:56:37.398Z,71.19
2023-01-28T10:59:23.692Z,72.05
2023-01-28T11:01:58.420Z,71.85
2023-01-28T11:04:31.297Z,70.57
2023-01-28T11:07:21.087Z,71.54
2023-01-28T11:09:51.673Z,70.77
2023-01-28T11:12:31.461Z,70.55
2023-01-28T11:15:04.089Z,67.59
2023-01-28T11:17:36.320Z,66.51
2023-01-28T11:20:24.496Z,69.79
2023-01-28T11:22:52.484Z,67.98
2023-01-28T11:25:35.022Z,69.37
2023-01-28T11:28:08.487Z,70.50
2023-01-28T11:30:43.455Z,67.59
2023-01-28T11:33:19.112Z,70.24
2023-01-28T11:36:05.547Z,70.28
2023-01-28T11:38:34.082Z,70.79
2023-01-28T11:41:01.932Z,72.23
2023-01-28T11:43:32.280Z,67.63
2023-01-28T11:46:39.241Z,70.00
2023-01-28T11:49:36.163Z,69.70
2023-01-28T11:53:02.651Z,72.10
2023-01-28T11:56:07.249Z,68.09
2023-01-28T11:59:37.119Z,67.74
2023-01-28T12:02:26.446Z,67.53
2023-01-28T12:05:20.097Z,68.92
2023-01-28T12:08:11.206Z,69.10
2023-01-28T12:11:12.143Z,68.98
2023-01-28T12:13:58.925Z,70.23
2023-01-28T12:17:28.850Z,71.11
2023-01-28T12:20:31.729Z,73.76
2023-01-28T12:23:46.351Z,76.35
2023-01-28T12:26:26.774Z,76.43
2023-01-28T12:32:39.444Z,77.59
2023-01-28T12:35:33.896Z,78.21
2023-01-28T12:38:03.946Z,78.48
2023-01-28T12:40:49.977Z,80.12
2023-01-28T12:43:51.288Z,79.36
2023-01-28T12:46:29.562Z,80.40
2023-01-28T12:49:20.280Z,82.57
2023-01-28T12:52:16.234Z,79.94
2023-01-28T12:54:57.824Z,80.88
2023-01-28T12:57:31.361Z,82.25
2023-01-28T13:00:30.489Z,82.69
2023-01-28T13:03:20.851Z,81.76
2023-01-28T13:06:03.281Z,80.57
2023-01-28T13:08:31.147Z,82.34
2023-01-28T13:11:01.619Z,82.16
2023-01-28T13:13:40.003Z,82.34
2023-01-28T13:16:11.236Z,83.09
2023-01-28T13:18:45.697Z,83.16
2023-01-28T13:21:25.133Z,84.13
2023-01-28T13:24:09.642Z,83.60
2023-01-28T13:26:48.040Z,84.34
2023-01-28T13:29:15.583Z,83.65
2023-01-28T13:31:51.219Z,84.58
2023-01-28T13:34:30.036Z,85.03
2023-01-28T13:37:20.353Z,86.78
2023-01-28T13:40:02.114Z,87.83
2023-01-28T13:42:32.030Z,86.87
2023-01-28T13:45:21.968Z,86.35
2023-01-28T13:48:12.962Z,88.46
2023-01-28T13:50:45.112Z,87.11
2023-01-28T13:53:30.538Z,86.76
2023-01-28T13:56:00.822Z,87.85
2023-01-28T13:59:06.749Z,86.85
2023-01-28T14:01:51.404Z,87.01
2023-01-28T14:05:10.421Z,87.87
2023-01-28T14:07:55.542Z,87.98
2023-01-28T14:10:51.981Z,89.49
2023-01-28T14:14:43.542Z,89.95
2023-01-28T14:17:23.963Z,89.27
2023-01-28T14:19:54.592Z,90.97
2023-01-28T14:22:22.682Z,89.85
2023-01-28T14:24:50.843Z,89.13
2023-01-28T14:27:38.375Z,90.44
2023-01-28T14:30:44.439Z,89.17
2023-01-28T14:33:13.420Z,89.39
2023-01-28T14:35:47.372Z,90.43
2023-01-28T14:38:21.012Z,89.61
2023-01-28T14:40:56.519Z,90.86
2023-01-28T14:43:27.796Z,91.05
2023-01-28T14:46:22.263Z,91.96
2023-01-28T14:49:10.037Z,91.11
2023-01-28T14:52:29.200Z,92.87
2023-01-28T14:55:15.687Z,92.92
2023-01-28T14:57:53.128Z,94.38
2023-01-28T15:00:28.222Z,95.05
2023-01-28T15:02:55.884Z,96.16
2023-01-28T15:05:30.197Z,95.55
2023-01-28T15:07:57.809Z,94.62
2023-01-28T15:10:37.202Z,96.84
2023-01-28T15:13:31.034Z,95.06
2023-01-28T15:16:00.746Z,93.98
2023-01-28T15:18:50.913Z,94.50
2023-01-28T15:21:28.637Z,95.07
2023-01-28T15:24:01.219Z,97.21
2023-01-28T15:26:33.217Z,95.11
2023-01-28T15:29:01.248Z,96.88
2023-01-28T15:31:39.202Z,96.21
2023-01-28T15:34:22.657Z,96.57
2023-01-28T15:36:50.528Z,95.18
2023-01-28T15:39:21.692Z,95.86
2023-01-28T15:42:05.300Z,98.34
2023-01-28T15:44:37.909Z,98.33
2023-01-28T15:47:26.097Z,99.53
2023-01-28T15:49:58.442Z,98.30
2023-01-28T15:52:41.741Z,99.36
2023-01-28T15:55:39.907Z,99.85
2023-01-28T15:58:20.244Z,98.76
2023-01-28T16:00:49.625Z,97.78
2023-01-28T16:03:23.452Z,96.77
2023-01-28T16:06:04.030Z,98.15
2023-01-28T16:08:54.712Z,99.17
2023-01-28T16:11:44.821Z,99.89
2023-01-28T16:14:35.361Z,98.26
2023-01-28T16:17:03.115Z,97.20
2023-01-28T16:19:47.505Z,98.86
2023-01-28T16:22:32.685Z,98.96
2023-01-28T16:25:00.407Z,98.44
2023-01-28T16:27:31.719Z,99.52
2023-01-28T16:30:00.052Z,100.00
2023-01-28T16:32:33.597Z,100.00
2023-01-28T16:35:02.594Z,97.77
2023-01-28T16:37:33.324Z,98.46
2023-01-28T16:40:02.450Z,98.52
2023-01-28T16:42:33.231Z,98.05
2023-01-28T16:45:04.418Z,96.67
2023-01-28T16:47:33.616Z,93.63
2023-01-28T16:50:01.328Z,91.02
2023-01-28T16:52:29.162Z,92.98
2023-01-28T16:54:59.319Z,95.38
2023-01-28T16:57:26.892Z,93.23
2023-01-28T16:59:54.427Z,90.79
2023-01-28T17:02:23.675Z,91.59
2023-01-28T17:04:59.476Z,90.55
2023-01-28T17:07:30.311Z,92.37
2023-01-28T17:10:01.722Z,92.39
2023-01-28T17:12:29.444Z,92.88
2023-01-28T17:14:58.175Z,94.28
2023-01-28T17:17:26.798Z,93.10
2023-01-28T17:19:57.795Z,94.85
2023-01-28T17:22:25.928Z,94.97
2023-01-28T17:24:53.752Z,94.49
2023-01-28T17:27:21.338Z,95.33
2023-01-28T17:29:49.233Z,93.99
2023-01-28T17:32:19.274Z,94.64
2023-01-28T17:34:51.106Z,93.37
2023-01-28T17:37:21.248Z,94.29
2023-01-28T17:39:49.518Z,92.48
2023-01-28T17:42:18.002Z,92.62
2023-01-28T17:44:46.323Z,94.69
2023-01-28T17:47:14.462Z,93.89
2023-01-28T17:49:44.082Z,92.90
2023-01-28T17:52:14.156Z,92.08
2023-01-28T17:54:47.827Z,92.85
2023-01-28T17:57:17.374Z,92.78
2023-01-28T17:59:47.081Z,94.11
2023-01-28T18:02:19.483Z,92.35
2023-01-28T18:04:49.121Z,88.86
2023-01-28T18:07:21.575Z,89.85
2023-01-28T18:09:50.352Z,89.38
2023-01-28T18:12:22.317Z,89.30
2023-01-28T18:14:51.418Z,89.34
2023-01-28T18:17:19.554Z,88.40
2023-01-28T18:19:49.495Z,86.92
2023-01-28T18:22:19.096Z,87.18
2023-01-28T18:24:49.710Z,88.82
2023-01-28T18:27:25.021Z,87.78
2023-01-28T18:29:58.604Z,86.94
2023-01-28T18:32:30.076Z,86.10
2023-01-28T18:34:58.812Z,86.97
2023-01-28T18:37:31.275Z,85.90
2023-01-28T18:40:01.886Z,86.61
2023-01-28T18:42:38.910Z,86.16
2023-01-28T18:45:08.879Z,84.80
2023-01-28T18:47:37.691Z,83.91
2023-01-28T18:50:10.026Z,85.14
2023-01-28T18:52:44.664Z,85.09
2023-01-28T18:55:13.555Z,85.00
2023-01-28T18:57:45.541Z,85.87
2023-01-28T19:00:16.123Z,85.00
2023-01-28T19:02:45.429Z,85.67
2023-01-28T19:05:17.367Z,85.63
2023-01-28T19:07:46.292Z,84.84
2023-01-28T19:10:16.576Z,84.11
2023-01-28T19:12:45.877Z,86.02
2023-01-28T19:15:15.606Z,85.61
2023-01-28T19:17:45.277Z,87.21
2023-01-28T19:20:15.376Z,87.02
2023-01-28T19:22:46.226Z,87.39
2023-01-28T19:25:17.664Z,85.48
2023-01-28T19:27:48.939Z,84.62
2023-01-28T19:30:18.613Z,85.71
2023-01-28T19:32:52.327Z,86.48
2023-01-28T19:35:22.182Z,87.26
2023-01-28T19:37:52.038Z,86.64
2023-01-28T19:40:21.326Z,87.58
2023-01-28T19:42:54.789Z,87.99
2023-01-28T19:45:24.063Z,87.68
2023-01-28T19:47:53.479Z,88.13
2023-01-28T19:50:21.384Z,87.55
2023-01-28T19:52:50.189Z,87.38
2023-01-28T19:55:22.145Z,87.45
2023-01-28T19:57:53.818Z,88.52
2023-01-28T20:00:25.684Z,87.87
2023-01-28T20:02:58.699Z,88.68
2023-01-28T20:05:27.504Z,90.59
2023-01-28T20:07:56.599Z,91.38
2023-01-28T20:10:25.758Z,92.08
2023-01-28T20:12:54.882Z,91.70
2023-01-28T20:15:24.580Z,91.30
2023-01-28T20:17:52.714Z,90.52
2023-01-28T20:20:21.786Z,91.19
2023-01-28T20:22:51.250Z,90.37
2023-01-28T20:25:22.447Z,91.24
2023-01-28T20:27:52.759Z,91.71
2023-01-28T20:30:28.066Z,92.52
2023-01-28T20:32:58.403Z,92.88
2023-01-28T20:35:27.818Z,92.45
2023-01-28T20:37:57.043Z,92.11
2023-01-28T20:40:25.394Z,91.63
2023-01-28T20:42:54.332Z,92.13
2023-01-28T20:45:23.900Z,90.01
2023-01-28T20:47:52.430Z,87.74
2023-01-28T20:50:21.288Z,88.56
2023-01-28T20:52:55.757Z,88.20
2023-01-28T20:55:30.019Z,88.68
2023-01-28T20:57:59.460Z,87.40
2023-01-28T21:00:31.180Z,85.98
2023-01-28T21:03:04.310Z,85.21
2023-01-28T21:05:33.472Z,85.04
2023-01-28T21:08:04.118Z,86.71
2023-01-28T21:10:34.535Z,86.06
2023-01-28T21:13:04.905Z,85.03
2023-01-28T21:15:36.824Z,82.32
2023-01-28T21:18:06.982Z,84.30
2023-01-28T21:20:35.052Z,84.28
2023-01-28T21:23:03.603Z,83.81
2023-01-28T21:25:33.489Z,84.01
2023-01-28T21:28:03.932Z,83.65
2023-01-28T21:30:31.742Z,84.80
2023-01-28T21:32:59.335Z,83.78
2023-01-28T21:35:26.910Z,84.34
2023-01-28T21:37:55.629Z,85.14
2023-01-28T21:40:24.069Z,86.27
2023-01-28T21:42:55.087Z,87.93
2023-01-28T21:45:23.252Z,89.77
2023-01-28T21:47:51.348Z,89.36
2023-01-28T21:50:19.901Z,89.22
2023-01-28T21:52:51.278Z,88.77
2023-01-28T21:55:20.136Z,88.78
2023-01-28T21:57:47.819Z,88.85
2023-01-28T22:00:16.628Z,89.29
2023-01-28T22:02:44.404Z,88.53
2023-01-28T22:05:13.096Z,87.78
2023-01-28T22:07:40.505Z,87.92
2023-01-28T22:10:08.883Z,87.10
2023-01-28T22:12:36.443Z,86.58
2023-01-28T22:15:06.807Z,86.31
2023-01-28T22:17:34.483Z,84.85
2023-01-28T22:20:02.012Z,85.43
2023-01-28T22:22:29.484Z,86.63
2023-01-28T22:24:56.981Z,86.47
2023-01-28T22:27:26.163Z,87.69
2023-01-28T22:29:57.389Z,87.58
2023-01-28T22:32:24.967Z,87.89
2023-01-28T22:34:52.383Z,89.35
2023-01-28T22:37:19.889Z,90.04
2023-01-28T22:39:47.365Z,90.52
2023-01-28T22:42:14.888Z,91.39
2023-01-28T22:44:42.402Z,91.99
2023-01-28T22:47:10.096Z,91.97
2023-01-28T22:49:37.555Z,91.38
2023-01-28T22:52:05.214Z,92.58
2023-01-28T22:54:32.716Z,91.72
2023-01-28T22:57:00.823Z,92.49
2023-01-28T22:59:28.389Z,91.38
2023-01-28T23:01:55.936Z,89.87
2023-01-28T23:04:23.441Z,89.83
2023-01-28T23:06:50.941Z,91.33
2023-01-28T23:09:18.410Z,90.51
2023-01-28T23:11:45.931Z,92.56
2023-01-28T23:14:31.657Z,93.43
2023-01-28T23:17:17.635Z,92.75
2023-01-28T23:20:03.590Z,94.31
2023-01-28T23:22:53.843Z,96.40
2023-01-28T23:25:24.149Z,98.54
2023-01-28T23:27:51.731Z,97.77
2023-01-28T23:30:25.106Z,97.30
2023-01-28T23:32:58.568Z,97.92
2023-01-28T23:35:27.010Z,98.48
2023-01-28T23:37:56.619Z,98.15
2023-01-28T23:40:24.738Z,99.92
2023-01-28T23:42:56.108Z,100.00
2023-01-28T23:45:24.336Z,100.00
2023-01-28T23:47:52.493Z,100.00
2023-01-28T23:50:20.003Z,100.00
2023-01-28T23:52:47.595Z,100.00
2023-01-28T23:55:16.057Z,100.00
2023-01-28T23:57:43.553Z,100.00
